sensor_id;sensor_type;location;lat;lon;timestamp;temperature;humidity
6738;DHT22;3406;49.902;8.596;2022-08-23T00:02:19;21.80;45.60
6738;DHT22;3406;49.902;8.596;2022-08-23T00:04:46;21.80;45.60
6738;DHT22;3406;49.902;8.596;2022-08-23T00:07:15;21.80;45.70
6738;DHT22;3406;49.902;8.596;2022-08-23T00:09:41;21.70;45.60
6738;DHT22;3406;49.902;8.596;2022-08-23T00:12:12;21.70;45.70
6738;DHT22;3406;49.902;8.596;2022-08-23T00:14:42;21.70;45.80
6738;DHT22;3406;49.902;8.596;2022-08-23T00:17:10;21.70;45.90
6738;DHT22;3406;49.902;8.596;2022-08-23T00:19:37;21.60;45.90
6738;DHT22;3406;49.902;8.596;2022-08-23T00:22:05;21.50;46.10
6738;DHT22;3406;49.902;8.596;2022-08-23T00:24:33;21.40;46.20
6738;DHT22;3406;49.902;8.596;2022-08-23T00:27:03;21.40;46.40
6738;DHT22;3406;49.902;8.596;2022-08-23T00:29:35;21.30;46.40
6738;DHT22;3406;49.902;8.596;2022-08-23T00:32:04;21.20;46.50
6738;DHT22;3406;49.902;8.596;2022-08-23T00:34:32;21.20;46.80
6738;DHT22;3406;49.902;8.596;2022-08-23T00:36:59;21.10;46.90
6738;DHT22;3406;49.902;8.596;2022-08-23T00:39:26;21.00;47.00
6738;DHT22;3406;49.902;8.596;2022-08-23T00:41:58;20.90;47.10
6738;DHT22;3406;49.902;8.596;2022-08-23T00:44:30;20.90;47.20
6738;DHT22;3406;49.902;8.596;2022-08-23T00:47:16;20.80;47.50
6738;DHT22;3406;49.902;8.596;2022-08-23T00:50:06;20.70;47.60
6738;DHT22;3406;49.902;8.596;2022-08-23T00:52:39;20.70;47.70
6738;DHT22;3406;49.902;8.596;2022-08-23T00:55:07;20.70;47.80
6738;DHT22;3406;49.902;8.596;2022-08-23T00:57:35;20.60;47.90
6738;DHT22;3406;49.902;8.596;2022-08-23T01:00:05;20.60;48.00
6738;DHT22;3406;49.902;8.596;2022-08-23T01:02:32;20.50;48.10
6738;DHT22;3406;49.902;8.596;2022-08-23T01:05:00;20.50;48.10
6738;DHT22;3406;49.902;8.596;2022-08-23T01:07:35;20.40;48.20
6738;DHT22;3406;49.902;8.596;2022-08-23T01:10:08;20.40;48.20
6738;DHT22;3406;49.902;8.596;2022-08-23T01:12:41;20.40;48.40
6738;DHT22;3406;49.902;8.596;2022-08-23T01:15:16;20.40;48.40
6738;DHT22;3406;49.902;8.596;2022-08-23T01:17:48;20.30;48.40
6738;DHT22;3406;49.902;8.596;2022-08-23T01:20:18;20.30;48.50
6738;DHT22;3406;49.902;8.596;2022-08-23T01:22:51;20.30;48.60
6738;DHT22;3406;49.902;8.596;2022-08-23T01:25:22;20.20;48.70
6738;DHT22;3406;49.902;8.596;2022-08-23T01:27:49;20.20;48.80
6738;DHT22;3406;49.902;8.596;2022-08-23T01:30:22;20.20;48.80
6738;DHT22;3406;49.902;8.596;2022-08-23T01:32:51;20.20;48.90
6738;DHT22;3406;49.902;8.596;2022-08-23T01:35:22;20.20;49.10
6738;DHT22;3406;49.902;8.596;2022-08-23T01:37:50;20.10;49.00
6738;DHT22;3406;49.902;8.596;2022-08-23T01:40:17;20.10;49.20
6738;DHT22;3406;49.902;8.596;2022-08-23T01:42:45;20.00;49.30
6738;DHT22;3406;49.902;8.596;2022-08-23T01:45:14;19.90;49.50
6738;DHT22;3406;49.902;8.596;2022-08-23T01:47:41;19.90;49.70
6738;DHT22;3406;49.902;8.596;2022-08-23T01:50:09;19.90;49.80
6738;DHT22;3406;49.902;8.596;2022-08-23T01:52:37;19.80;49.70
6738;DHT22;3406;49.902;8.596;2022-08-23T01:55:05;19.80;49.80
6738;DHT22;3406;49.902;8.596;2022-08-23T01:57:33;19.80;50.00
6738;DHT22;3406;49.902;8.596;2022-08-23T02:00:04;19.80;50.00
6738;DHT22;3406;49.902;8.596;2022-08-23T02:02:31;19.70;50.00
6738;DHT22;3406;49.902;8.596;2022-08-23T02:04:57;19.70;50.60
6738;DHT22;3406;49.902;8.596;2022-08-23T02:07:25;19.70;50.10
6738;DHT22;3406;49.902;8.596;2022-08-23T02:09:52;19.70;50.10
6738;DHT22;3406;49.902;8.596;2022-08-23T02:12:18;19.70;50.10
6738;DHT22;3406;49.902;8.596;2022-08-23T02:14:45;19.70;50.20
6738;DHT22;3406;49.902;8.596;2022-08-23T02:17:13;19.70;50.20
6738;DHT22;3406;49.902;8.596;2022-08-23T02:19:41;19.60;50.20
6738;DHT22;3406;49.902;8.596;2022-08-23T02:22:09;19.60;50.40
6738;DHT22;3406;49.902;8.596;2022-08-23T02:24:39;19.60;50.50
6738;DHT22;3406;49.902;8.596;2022-08-23T02:27:06;19.60;50.60
6738;DHT22;3406;49.902;8.596;2022-08-23T02:29:34;19.50;50.60
6738;DHT22;3406;49.902;8.596;2022-08-23T02:32:01;19.50;50.70
6738;DHT22;3406;49.902;8.596;2022-08-23T02:34:30;19.50;50.80
6738;DHT22;3406;49.902;8.596;2022-08-23T02:36:57;19.50;50.90
6738;DHT22;3406;49.902;8.596;2022-08-23T02:39:24;19.50;51.00
6738;DHT22;3406;49.902;8.596;2022-08-23T02:41:51;19.50;51.00
6738;DHT22;3406;49.902;8.596;2022-08-23T02:44:18;19.50;51.10
6738;DHT22;3406;49.902;8.596;2022-08-23T02:46:45;19.50;51.10
6738;DHT22;3406;49.902;8.596;2022-08-23T02:49:13;19.50;51.10
6738;DHT22;3406;49.902;8.596;2022-08-23T02:51:41;19.40;51.10
6738;DHT22;3406;49.902;8.596;2022-08-23T02:54:08;19.40;51.20
6738;DHT22;3406;49.902;8.596;2022-08-23T02:56:35;19.40;51.20
6738;DHT22;3406;49.902;8.596;2022-08-23T02:59:03;19.40;51.20
6738;DHT22;3406;49.902;8.596;2022-08-23T03:01:34;19.40;51.30
6738;DHT22;3406;49.902;8.596;2022-08-23T03:04:05;19.40;51.30
6738;DHT22;3406;49.902;8.596;2022-08-23T03:06:32;19.30;51.30
6738;DHT22;3406;49.902;8.596;2022-08-23T03:09:00;19.30;51.40
6738;DHT22;3406;49.902;8.596;2022-08-23T03:11:27;19.30;51.50
6738;DHT22;3406;49.902;8.596;2022-08-23T03:13:54;19.20;51.60
6738;DHT22;3406;49.902;8.596;2022-08-23T03:16:22;19.20;51.70
6738;DHT22;3406;49.902;8.596;2022-08-23T03:18:50;19.10;51.80
6738;DHT22;3406;49.902;8.596;2022-08-23T03:21:18;19.10;52.50
6738;DHT22;3406;49.902;8.596;2022-08-23T03:23:45;19.10;52.10
6738;DHT22;3406;49.902;8.596;2022-08-23T03:26:15;19.00;52.20
6738;DHT22;3406;49.902;8.596;2022-08-23T03:28:42;19.00;52.40
6738;DHT22;3406;49.902;8.596;2022-08-23T03:31:09;19.00;52.50
6738;DHT22;3406;49.902;8.596;2022-08-23T03:33:37;19.00;52.60
6738;DHT22;3406;49.902;8.596;2022-08-23T03:36:06;19.00;52.80
6738;DHT22;3406;49.902;8.596;2022-08-23T03:38:34;19.00;53.10
6738;DHT22;3406;49.902;8.596;2022-08-23T03:41:02;19.00;52.90
6738;DHT22;3406;49.902;8.596;2022-08-23T03:43:30;19.00;52.90
6738;DHT22;3406;49.902;8.596;2022-08-23T03:45:56;19.00;53.00
6738;DHT22;3406;49.902;8.596;2022-08-23T03:48:23;18.90;53.10
6738;DHT22;3406;49.902;8.596;2022-08-23T03:50:51;18.90;53.10
6738;DHT22;3406;49.902;8.596;2022-08-23T03:53:17;18.90;53.20
6738;DHT22;3406;49.902;8.596;2022-08-23T03:55:44;18.90;53.30
6738;DHT22;3406;49.902;8.596;2022-08-23T03:58:11;18.80;53.40
6738;DHT22;3406;49.902;8.596;2022-08-23T04:00:39;18.90;53.50
6738;DHT22;3406;49.902;8.596;2022-08-23T04:03:06;18.90;53.50
6738;DHT22;3406;49.902;8.596;2022-08-23T04:05:33;18.80;53.40
6738;DHT22;3406;49.902;8.596;2022-08-23T04:08:06;18.90;53.50
6738;DHT22;3406;49.902;8.596;2022-08-23T04:10:33;18.80;53.40
6738;DHT22;3406;49.902;8.596;2022-08-23T04:12:59;18.80;53.40
6738;DHT22;3406;49.902;8.596;2022-08-23T04:15:27;18.80;53.40
6738;DHT22;3406;49.902;8.596;2022-08-23T04:17:55;18.80;53.50
6738;DHT22;3406;49.902;8.596;2022-08-23T04:20:23;18.80;53.40
6738;DHT22;3406;49.902;8.596;2022-08-23T04:22:50;18.80;53.40
6738;DHT22;3406;49.902;8.596;2022-08-23T04:25:17;18.80;53.40
6738;DHT22;3406;49.902;8.596;2022-08-23T04:27:44;18.80;53.40
6738;DHT22;3406;49.902;8.596;2022-08-23T04:30:11;18.80;53.50
6738;DHT22;3406;49.902;8.596;2022-08-23T04:32:38;18.70;53.40
6738;DHT22;3406;49.902;8.596;2022-08-23T04:35:07;18.70;53.50
6738;DHT22;3406;49.902;8.596;2022-08-23T04:37:34;18.70;53.60
6738;DHT22;3406;49.902;8.596;2022-08-23T04:40:00;18.70;53.60
6738;DHT22;3406;49.902;8.596;2022-08-23T04:42:45;18.70;53.70
6738;DHT22;3406;49.902;8.596;2022-08-23T04:45:11;18.70;53.70
6738;DHT22;3406;49.902;8.596;2022-08-23T04:47:38;18.60;53.80
6738;DHT22;3406;49.902;8.596;2022-08-23T04:50:07;18.50;53.80
6738;DHT22;3406;49.902;8.596;2022-08-23T04:52:34;18.50;53.90
6738;DHT22;3406;49.902;8.596;2022-08-23T04:55:01;18.50;54.00
6738;DHT22;3406;49.902;8.596;2022-08-23T04:57:28;18.50;54.10
6738;DHT22;3406;49.902;8.596;2022-08-23T04:59:56;18.40;54.20
6738;DHT22;3406;49.902;8.596;2022-08-23T05:02:22;18.40;54.30
6738;DHT22;3406;49.902;8.596;2022-08-23T05:04:49;18.40;54.40
6738;DHT22;3406;49.902;8.596;2022-08-23T05:07:17;18.40;54.50
6738;DHT22;3406;49.902;8.596;2022-08-23T05:09:43;18.40;54.50
6738;DHT22;3406;49.902;8.596;2022-08-23T05:12:10;18.40;54.60
6738;DHT22;3406;49.902;8.596;2022-08-23T05:14:37;18.40;54.70
6738;DHT22;3406;49.902;8.596;2022-08-23T05:17:04;18.40;54.80
6738;DHT22;3406;49.902;8.596;2022-08-23T05:19:30;18.40;54.80
6738;DHT22;3406;49.902;8.596;2022-08-23T05:21:57;18.40;54.80
6738;DHT22;3406;49.902;8.596;2022-08-23T05:24:25;18.50;54.80
6738;DHT22;3406;49.902;8.596;2022-08-23T05:26:52;18.50;54.80
6738;DHT22;3406;49.902;8.596;2022-08-23T05:29:18;18.60;54.80
6738;DHT22;3406;49.902;8.596;2022-08-23T05:31:46;18.70;54.80
6738;DHT22;3406;49.902;8.596;2022-08-23T05:34:13;18.70;54.80
6738;DHT22;3406;49.902;8.596;2022-08-23T05:36:39;18.80;54.70
6738;DHT22;3406;49.902;8.596;2022-08-23T05:39:06;18.90;54.70
6738;DHT22;3406;49.902;8.596;2022-08-23T05:41:34;19.00;54.70
6738;DHT22;3406;49.902;8.596;2022-08-23T05:44:01;19.10;54.60
6738;DHT22;3406;49.902;8.596;2022-08-23T05:46:28;19.10;54.50
6738;DHT22;3406;49.902;8.596;2022-08-23T05:48:55;19.30;54.50
6738;DHT22;3406;49.902;8.596;2022-08-23T05:51:24;19.40;54.50
6738;DHT22;3406;49.902;8.596;2022-08-23T05:53:52;19.50;54.40
6738;DHT22;3406;49.902;8.596;2022-08-23T05:56:22;19.60;54.40
6738;DHT22;3406;49.902;8.596;2022-08-23T05:58:52;19.70;54.30
6738;DHT22;3406;49.902;8.596;2022-08-23T06:01:20;19.80;54.30
6738;DHT22;3406;49.902;8.596;2022-08-23T06:03:47;19.90;54.20
6738;DHT22;3406;49.902;8.596;2022-08-23T06:06:15;20.00;54.10
6738;DHT22;3406;49.902;8.596;2022-08-23T06:08:44;20.20;54.10
6738;DHT22;3406;49.902;8.596;2022-08-23T06:11:14;20.20;54.00
6738;DHT22;3406;49.902;8.596;2022-08-23T06:13:43;20.40;54.10
6738;DHT22;3406;49.902;8.596;2022-08-23T06:16:12;20.50;53.80
6738;DHT22;3406;49.902;8.596;2022-08-23T06:18:39;20.60;53.70
6738;DHT22;3406;49.902;8.596;2022-08-23T06:21:08;20.80;53.60
6738;DHT22;3406;49.902;8.596;2022-08-23T06:23:35;20.90;53.50
6738;DHT22;3406;49.902;8.596;2022-08-23T06:26:09;21.10;53.40
6738;DHT22;3406;49.902;8.596;2022-08-23T06:28:36;21.20;53.30
6738;DHT22;3406;49.902;8.596;2022-08-23T06:31:02;21.40;53.20
6738;DHT22;3406;49.902;8.596;2022-08-23T06:33:30;21.50;53.00
6738;DHT22;3406;49.902;8.596;2022-08-23T06:36:01;21.60;52.80
6738;DHT22;3406;49.902;8.596;2022-08-23T06:38:29;21.80;52.70
6738;DHT22;3406;49.902;8.596;2022-08-23T06:40:59;21.90;52.70
6738;DHT22;3406;49.902;8.596;2022-08-23T06:43:26;22.00;52.50
6738;DHT22;3406;49.902;8.596;2022-08-23T06:45:53;22.10;52.40
6738;DHT22;3406;49.902;8.596;2022-08-23T06:48:20;22.20;52.20
6738;DHT22;3406;49.902;8.596;2022-08-23T06:50:48;22.40;52.00
6738;DHT22;3406;49.902;8.596;2022-08-23T06:53:15;22.50;51.80
6738;DHT22;3406;49.902;8.596;2022-08-23T06:55:42;22.70;51.70
6738;DHT22;3406;49.902;8.596;2022-08-23T06:58:08;22.80;51.40
6738;DHT22;3406;49.902;8.596;2022-08-23T07:00:35;22.90;51.20
6738;DHT22;3406;49.902;8.596;2022-08-23T07:03:02;23.10;51.20
6738;DHT22;3406;49.902;8.596;2022-08-23T07:05:29;23.10;51.00
6738;DHT22;3406;49.902;8.596;2022-08-23T07:07:57;23.30;50.90
6738;DHT22;3406;49.902;8.596;2022-08-23T07:10:24;23.30;50.60
6738;DHT22;3406;49.902;8.596;2022-08-23T07:12:50;23.40;50.40
6738;DHT22;3406;49.902;8.596;2022-08-23T07:15:17;23.40;50.20
6738;DHT22;3406;49.902;8.596;2022-08-23T07:17:45;23.50;50.00
6738;DHT22;3406;49.902;8.596;2022-08-23T07:20:11;23.60;49.70
6738;DHT22;3406;49.902;8.596;2022-08-23T07:22:38;23.70;49.60
6738;DHT22;3406;49.902;8.596;2022-08-23T07:25:06;23.80;49.40
6738;DHT22;3406;49.902;8.596;2022-08-23T07:27:33;23.90;49.20
6738;DHT22;3406;49.902;8.596;2022-08-23T07:30:00;24.00;49.00
6738;DHT22;3406;49.902;8.596;2022-08-23T07:32:27;24.20;48.90
6738;DHT22;3406;49.902;8.596;2022-08-23T07:34:54;24.20;48.60
6738;DHT22;3406;49.902;8.596;2022-08-23T07:37:20;24.30;48.50
6738;DHT22;3406;49.902;8.596;2022-08-23T07:39:47;24.30;48.40
6738;DHT22;3406;49.902;8.596;2022-08-23T07:42:15;24.30;48.20
6738;DHT22;3406;49.902;8.596;2022-08-23T07:44:41;24.20;48.00
6738;DHT22;3406;49.902;8.596;2022-08-23T07:47:08;24.20;47.90
6738;DHT22;3406;49.902;8.596;2022-08-23T07:49:34;24.20;47.80
6738;DHT22;3406;49.902;8.596;2022-08-23T07:52:01;24.20;47.70
6738;DHT22;3406;49.902;8.596;2022-08-23T07:54:28;24.20;47.60
6738;DHT22;3406;49.902;8.596;2022-08-23T07:56:55;24.40;47.50
6738;DHT22;3406;49.902;8.596;2022-08-23T07:59:23;24.40;47.10
6738;DHT22;3406;49.902;8.596;2022-08-23T08:01:50;24.40;46.80
6738;DHT22;3406;49.902;8.596;2022-08-23T08:04:16;24.40;46.80
6738;DHT22;3406;49.902;8.596;2022-08-23T08:06:44;24.50;46.50
6738;DHT22;3406;49.902;8.596;2022-08-23T08:09:12;24.60;46.60
6738;DHT22;3406;49.902;8.596;2022-08-23T08:11:43;24.70;46.50
6738;DHT22;3406;49.902;8.596;2022-08-23T08:14:10;24.90;46.50
6738;DHT22;3406;49.902;8.596;2022-08-23T08:16:40;25.00;46.30
6738;DHT22;3406;49.902;8.596;2022-08-23T08:19:09;25.20;46.20
6738;DHT22;3406;49.902;8.596;2022-08-23T08:21:37;25.20;45.80
6738;DHT22;3406;49.902;8.596;2022-08-23T08:24:05;25.30;45.80
6738;DHT22;3406;49.902;8.596;2022-08-23T08:26:32;25.40;45.60
6738;DHT22;3406;49.902;8.596;2022-08-23T08:28:59;25.50;45.50
6738;DHT22;3406;49.902;8.596;2022-08-23T08:31:26;25.60;45.40
6738;DHT22;3406;49.902;8.596;2022-08-23T08:33:54;25.70;45.30
6738;DHT22;3406;49.902;8.596;2022-08-23T08:36:32;25.70;45.10
6738;DHT22;3406;49.902;8.596;2022-08-23T08:39:01;25.80;45.00
6738;DHT22;3406;49.902;8.596;2022-08-23T08:41:42;25.80;44.80
6738;DHT22;3406;49.902;8.596;2022-08-23T08:44:22;25.80;44.70
6738;DHT22;3406;49.902;8.596;2022-08-23T08:46:52;25.80;44.80
6738;DHT22;3406;49.902;8.596;2022-08-23T08:49:30;25.70;44.60
6738;DHT22;3406;49.902;8.596;2022-08-23T08:52:02;25.80;44.50
6738;DHT22;3406;49.902;8.596;2022-08-23T08:54:32;25.90;44.50
6738;DHT22;3406;49.902;8.596;2022-08-23T08:57:00;25.90;44.40
6738;DHT22;3406;49.902;8.596;2022-08-23T08:59:34;26.00;44.10
6738;DHT22;3406;49.902;8.596;2022-08-23T09:02:06;26.00;43.90
6738;DHT22;3406;49.902;8.596;2022-08-23T09:04:40;26.10;44.10
6738;DHT22;3406;49.902;8.596;2022-08-23T09:07:11;26.20;44.00
6738;DHT22;3406;49.902;8.596;2022-08-23T09:09:58;26.30;43.90
6738;DHT22;3406;49.902;8.596;2022-08-23T09:12:31;26.40;43.60
6738;DHT22;3406;49.902;8.596;2022-08-23T09:15:18;26.40;43.20
6738;DHT22;3406;49.902;8.596;2022-08-23T09:17:50;26.40;43.30
6738;DHT22;3406;49.902;8.596;2022-08-23T09:20:20;26.30;43.00
6738;DHT22;3406;49.902;8.596;2022-08-23T09:22:48;26.30;43.10
6738;DHT22;3406;49.902;8.596;2022-08-23T09:25:17;26.40;43.20
6738;DHT22;3406;49.902;8.596;2022-08-23T09:27:44;26.60;43.10
6738;DHT22;3406;49.902;8.596;2022-08-23T09:30:14;26.70;42.80
6738;DHT22;3406;49.902;8.596;2022-08-23T09:32:43;26.80;42.70
6738;DHT22;3406;49.902;8.596;2022-08-23T09:35:14;26.90;42.40
6738;DHT22;3406;49.902;8.596;2022-08-23T09:37:49;27.00;42.40
6738;DHT22;3406;49.902;8.596;2022-08-23T09:40:19;27.10;42.40
6738;DHT22;3406;49.902;8.596;2022-08-23T09:43:03;27.30;42.20
6738;DHT22;3406;49.902;8.596;2022-08-23T09:45:33;27.40;42.20
6738;DHT22;3406;49.902;8.596;2022-08-23T09:48:00;27.40;42.00
6738;DHT22;3406;49.902;8.596;2022-08-23T09:50:30;27.60;42.00
6738;DHT22;3406;49.902;8.596;2022-08-23T09:53:04;27.70;41.90
6738;DHT22;3406;49.902;8.596;2022-08-23T09:55:34;27.70;41.80
6738;DHT22;3406;49.902;8.596;2022-08-23T09:58:03;27.80;41.70
6738;DHT22;3406;49.902;8.596;2022-08-23T10:00:33;27.80;41.50
6738;DHT22;3406;49.902;8.596;2022-08-23T10:03:20;27.90;41.50
6738;DHT22;3406;49.902;8.596;2022-08-23T10:05:49;27.90;41.40
6738;DHT22;3406;49.902;8.596;2022-08-23T10:08:24;27.90;41.30
6738;DHT22;3406;49.902;8.596;2022-08-23T10:10:53;27.90;41.40
6738;DHT22;3406;49.902;8.596;2022-08-23T10:13:21;28.00;41.30
6738;DHT22;3406;49.902;8.596;2022-08-23T10:15:56;28.10;41.30
6738;DHT22;3406;49.902;8.596;2022-08-23T10:18:34;28.20;41.20
6738;DHT22;3406;49.902;8.596;2022-08-23T10:21:13;28.30;41.00
6738;DHT22;3406;49.902;8.596;2022-08-23T10:23:49;28.40;40.90
6738;DHT22;3406;49.902;8.596;2022-08-23T10:26:24;28.50;40.70
6738;DHT22;3406;49.902;8.596;2022-08-23T10:28:57;28.60;40.50
6738;DHT22;3406;49.902;8.596;2022-08-23T10:31:46;28.70;40.40
6738;DHT22;3406;49.902;8.596;2022-08-23T10:37:25;28.70;40.20
6738;DHT22;3406;49.902;8.596;2022-08-23T10:39:59;28.80;40.30
6738;DHT22;3406;49.902;8.596;2022-08-23T10:42:36;28.80;40.20
6738;DHT22;3406;49.902;8.596;2022-08-23T10:45:11;28.90;40.10
6738;DHT22;3406;49.902;8.596;2022-08-23T10:47:49;28.90;40.00
6738;DHT22;3406;49.902;8.596;2022-08-23T10:50:19;28.90;40.00
6738;DHT22;3406;49.902;8.596;2022-08-23T10:52:52;28.90;39.90
6738;DHT22;3406;49.902;8.596;2022-08-23T10:55:25;29.00;39.90
6738;DHT22;3406;49.902;8.596;2022-08-23T10:58:07;29.00;39.80
6738;DHT22;3406;49.902;8.596;2022-08-23T11:00:34;29.10;39.70
6738;DHT22;3406;49.902;8.596;2022-08-23T11:03:19;29.20;39.70
6738;DHT22;3406;49.902;8.596;2022-08-23T11:08:47;29.50;39.00
6738;DHT22;3406;49.902;8.596;2022-08-23T11:11:39;29.60;38.70
6738;DHT22;3406;49.902;8.596;2022-08-23T11:14:09;29.70;38.60
6738;DHT22;3406;49.902;8.596;2022-08-23T11:16:38;29.90;38.00
6738;DHT22;3406;49.902;8.596;2022-08-23T11:19:11;29.90;37.90
6738;DHT22;3406;49.902;8.596;2022-08-23T11:21:44;30.00;37.90
6738;DHT22;3406;49.902;8.596;2022-08-23T11:24:49;30.00;37.80
6738;DHT22;3406;49.902;8.596;2022-08-23T11:27:29;30.00;37.80
6738;DHT22;3406;49.902;8.596;2022-08-23T11:29:56;30.00;37.70
6738;DHT22;3406;49.902;8.596;2022-08-23T11:32:37;30.10;37.70
6738;DHT22;3406;49.902;8.596;2022-08-23T11:35:24;30.20;37.60
6738;DHT22;3406;49.902;8.596;2022-08-23T11:37:58;30.30;37.60
6738;DHT22;3406;49.902;8.596;2022-08-23T11:40:43;30.50;37.90
6738;DHT22;3406;49.902;8.596;2022-08-23T11:43:29;30.50;36.80
6738;DHT22;3406;49.902;8.596;2022-08-23T11:46:13;30.60;36.50
6738;DHT22;3406;49.902;8.596;2022-08-23T11:48:42;30.70;36.20
6738;DHT22;3406;49.902;8.596;2022-08-23T11:51:20;30.70;36.10
6738;DHT22;3406;49.902;8.596;2022-08-23T11:54:04;30.70;36.10
6738;DHT22;3406;49.902;8.596;2022-08-23T11:56:46;30.80;35.80
6738;DHT22;3406;49.902;8.596;2022-08-23T11:59:42;30.80;35.10
6738;DHT22;3406;49.902;8.596;2022-08-23T12:02:31;30.70;35.10
6738;DHT22;3406;49.902;8.596;2022-08-23T12:04:59;30.70;35.00
6738;DHT22;3406;49.902;8.596;2022-08-23T12:07:45;30.70;34.80
6738;DHT22;3406;49.902;8.596;2022-08-23T12:10:15;30.70;34.90
6738;DHT22;3406;49.902;8.596;2022-08-23T12:12:42;30.80;34.70
6738;DHT22;3406;49.902;8.596;2022-08-23T12:15:11;30.80;34.30
6738;DHT22;3406;49.902;8.596;2022-08-23T12:18:05;30.90;34.30
6738;DHT22;3406;49.902;8.596;2022-08-23T12:20:33;31.00;34.40
6738;DHT22;3406;49.902;8.596;2022-08-23T12:23:11;31.10;34.20
6738;DHT22;3406;49.902;8.596;2022-08-23T12:25:38;31.10;34.10
6738;DHT22;3406;49.902;8.596;2022-08-23T12:28:20;31.10;34.00
6738;DHT22;3406;49.902;8.596;2022-08-23T12:30:58;31.10;34.00
6738;DHT22;3406;49.902;8.596;2022-08-23T12:33:34;31.20;34.00
6738;DHT22;3406;49.902;8.596;2022-08-23T12:36:09;31.40;33.90
6738;DHT22;3406;49.902;8.596;2022-08-23T12:38:44;31.50;33.90
6738;DHT22;3406;49.902;8.596;2022-08-23T12:41:18;31.60;33.90
6738;DHT22;3406;49.902;8.596;2022-08-23T12:44:01;31.60;33.50
6738;DHT22;3406;49.902;8.596;2022-08-23T12:46:35;31.70;33.30
6738;DHT22;3406;49.902;8.596;2022-08-23T12:49:03;31.70;33.20
6738;DHT22;3406;49.902;8.596;2022-08-23T12:51:30;31.70;33.10
6738;DHT22;3406;49.902;8.596;2022-08-23T12:54:11;31.70;32.80
6738;DHT22;3406;49.902;8.596;2022-08-23T12:56:38;31.70;32.30
6738;DHT22;3406;49.902;8.596;2022-08-23T12:59:05;31.70;32.30
6738;DHT22;3406;49.902;8.596;2022-08-23T13:01:38;31.60;31.80
6738;DHT22;3406;49.902;8.596;2022-08-23T13:04:10;31.50;32.40
6738;DHT22;3406;49.902;8.596;2022-08-23T13:06:41;31.50;31.60
6738;DHT22;3406;49.902;8.596;2022-08-23T13:09:14;31.60;31.90
6738;DHT22;3406;49.902;8.596;2022-08-23T13:11:43;31.70;32.00
6738;DHT22;3406;49.902;8.596;2022-08-23T13:14:24;31.70;31.60
6738;DHT22;3406;49.902;8.596;2022-08-23T13:16:54;31.60;31.80
6738;DHT22;3406;49.902;8.596;2022-08-23T13:19:24;31.50;31.70
6738;DHT22;3406;49.902;8.596;2022-08-23T13:22:12;31.50;31.80
6738;DHT22;3406;49.902;8.596;2022-08-23T13:24:41;31.50;31.80
6738;DHT22;3406;49.902;8.596;2022-08-23T13:27:17;31.50;31.80
6738;DHT22;3406;49.902;8.596;2022-08-23T13:29:48;31.60;31.90
6738;DHT22;3406;49.902;8.596;2022-08-23T13:32:36;31.70;31.90
6738;DHT22;3406;49.902;8.596;2022-08-23T13:35:23;31.70;32.30
6738;DHT22;3406;49.902;8.596;2022-08-23T13:37:54;31.90;31.80
6738;DHT22;3406;49.902;8.596;2022-08-23T13:40:22;31.90;31.50
6738;DHT22;3406;49.902;8.596;2022-08-23T13:42:52;32.00;31.40
6738;DHT22;3406;49.902;8.596;2022-08-23T13:45:25;32.10;31.30
6738;DHT22;3406;49.902;8.596;2022-08-23T13:47:57;32.10;31.40
6738;DHT22;3406;49.902;8.596;2022-08-23T13:50:27;32.10;31.40
6738;DHT22;3406;49.902;8.596;2022-08-23T13:52:54;32.10;31.00
6738;DHT22;3406;49.902;8.596;2022-08-23T13:55:21;32.10;30.90
6738;DHT22;3406;49.902;8.596;2022-08-23T13:57:48;32.10;30.70
6738;DHT22;3406;49.902;8.596;2022-08-23T14:00:16;32.10;30.90
6738;DHT22;3406;49.902;8.596;2022-08-23T14:02:43;32.20;30.90
6738;DHT22;3406;49.902;8.596;2022-08-23T14:05:16;32.20;30.80
6738;DHT22;3406;49.902;8.596;2022-08-23T14:07:43;32.30;30.90
6738;DHT22;3406;49.902;8.596;2022-08-23T14:10:11;32.30;30.80
6738;DHT22;3406;49.902;8.596;2022-08-23T14:12:38;32.20;30.90
6738;DHT22;3406;49.902;8.596;2022-08-23T14:15:05;32.30;30.90
6738;DHT22;3406;49.902;8.596;2022-08-23T14:17:37;32.30;30.80
6738;DHT22;3406;49.902;8.596;2022-08-23T14:20:06;32.20;30.50
6738;DHT22;3406;49.902;8.596;2022-08-23T14:22:35;32.10;30.50
6738;DHT22;3406;49.902;8.596;2022-08-23T14:25:02;32.20;30.60
6738;DHT22;3406;49.902;8.596;2022-08-23T14:27:28;32.30;30.80
6738;DHT22;3406;49.902;8.596;2022-08-23T14:29:55;32.30;30.40
6738;DHT22;3406;49.902;8.596;2022-08-23T14:32:22;32.30;30.40
6738;DHT22;3406;49.902;8.596;2022-08-23T14:34:49;32.40;30.50
6738;DHT22;3406;49.902;8.596;2022-08-23T14:37:15;32.40;30.50
6738;DHT22;3406;49.902;8.596;2022-08-23T14:39:43;32.40;30.40
6738;DHT22;3406;49.902;8.596;2022-08-23T14:42:11;32.40;30.20
6738;DHT22;3406;49.902;8.596;2022-08-23T14:44:38;32.40;30.20
6738;DHT22;3406;49.902;8.596;2022-08-23T14:47:05;32.40;30.10
6738;DHT22;3406;49.902;8.596;2022-08-23T14:49:32;32.40;30.30
6738;DHT22;3406;49.902;8.596;2022-08-23T14:51:58;32.40;30.40
6738;DHT22;3406;49.902;8.596;2022-08-23T14:54:25;32.40;30.40
6738;DHT22;3406;49.902;8.596;2022-08-23T14:56:53;32.50;30.50
6738;DHT22;3406;49.902;8.596;2022-08-23T14:59:20;32.50;30.40
6738;DHT22;3406;49.902;8.596;2022-08-23T15:01:48;32.60;30.30
6738;DHT22;3406;49.902;8.596;2022-08-23T15:04:18;32.70;30.30
6738;DHT22;3406;49.902;8.596;2022-08-23T15:06:46;32.80;30.20
6738;DHT22;3406;49.902;8.596;2022-08-23T15:09:13;32.80;30.10
6738;DHT22;3406;49.902;8.596;2022-08-23T15:11:39;32.90;30.10
6738;DHT22;3406;49.902;8.596;2022-08-23T15:14:07;33.00;30.10
6738;DHT22;3406;49.902;8.596;2022-08-23T15:16:34;33.00;30.10
6738;DHT22;3406;49.902;8.596;2022-08-23T15:19:01;33.10;30.10
6738;DHT22;3406;49.902;8.596;2022-08-23T15:21:28;33.20;30.00
6738;DHT22;3406;49.902;8.596;2022-08-23T15:23:54;33.20;30.00
6738;DHT22;3406;49.902;8.596;2022-08-23T15:26:23;33.20;29.80
6738;DHT22;3406;49.902;8.596;2022-08-23T15:28:51;33.00;29.80
6738;DHT22;3406;49.902;8.596;2022-08-23T15:31:20;33.00;29.80
6738;DHT22;3406;49.902;8.596;2022-08-23T15:33:47;33.00;29.80
6738;DHT22;3406;49.902;8.596;2022-08-23T15:36:14;33.00;29.80
6738;DHT22;3406;49.902;8.596;2022-08-23T15:38:43;33.00;29.90
6738;DHT22;3406;49.902;8.596;2022-08-23T15:41:12;33.00;29.90
6738;DHT22;3406;49.902;8.596;2022-08-23T15:43:38;33.10;30.00
6738;DHT22;3406;49.902;8.596;2022-08-23T15:46:08;33.10;29.90
6738;DHT22;3406;49.902;8.596;2022-08-23T15:48:41;33.10;30.00
6738;DHT22;3406;49.902;8.596;2022-08-23T15:51:09;33.10;30.50
6738;DHT22;3406;49.902;8.596;2022-08-23T15:53:37;33.10;30.00
6738;DHT22;3406;49.902;8.596;2022-08-23T15:56:07;33.00;29.90
6738;DHT22;3406;49.902;8.596;2022-08-23T15:58:36;33.00;29.80
6738;DHT22;3406;49.902;8.596;2022-08-23T16:01:03;32.80;29.80
6738;DHT22;3406;49.902;8.596;2022-08-23T16:03:30;32.80;29.90
6738;DHT22;3406;49.902;8.596;2022-08-23T16:05:58;32.70;29.80
6738;DHT22;3406;49.902;8.596;2022-08-23T16:08:29;32.70;29.80
6738;DHT22;3406;49.902;8.596;2022-08-23T16:10:56;32.70;29.90
6738;DHT22;3406;49.902;8.596;2022-08-23T16:13:25;32.80;29.90
6738;DHT22;3406;49.902;8.596;2022-08-23T16:15:52;32.90;29.80
6738;DHT22;3406;49.902;8.596;2022-08-23T16:18:19;33.00;29.80
6738;DHT22;3406;49.902;8.596;2022-08-23T16:20:45;33.00;29.70
6738;DHT22;3406;49.902;8.596;2022-08-23T16:23:13;33.10;29.60
6738;DHT22;3406;49.902;8.596;2022-08-23T16:25:40;33.20;29.50
6738;DHT22;3406;49.902;8.596;2022-08-23T16:28:07;33.30;29.50